Time;durP1;ratioP1;P1;durP2;ratioP2;P2;SDS_P1;SDS_P2;PMS_P1;PMS_P2;Temp;Humidity;BMP_temperature;BMP_pressure;BME280_temperature;BME280_humidity;BME280_pressure;Samples;Min_cycle;Max_cycle;Signal;HPM_P1;HPM_P2
2024/04/14 00:00:15;;;;;;;2.67;1.92;;;;;;;16.42;73.95;100989.84;9011284;26;20451;-79
2024/04/14 00:04:17;;;;;;;4.80;2.35;;;;;;;16.25;75.24;100984.88;9013172;26;20091;-79
2024/04/14 00:08:19;;;;;;;3.00;2.28;;;;;;;16.12;76.17;100984.84;9031378;26;20003;-79
2024/04/14 00:12:21;;;;;;;4.30;2.40;;;;;;;16.33;74.97;100975.72;8985739;26;20007;-79
2024/04/14 00:16:22;;;;;;;2.88;2.05;;;;;;;16.18;75.46;100973.22;8944529;26;20003;-79
2024/04/14 00:20:26;;;;;;;4.15;2.05;;;;;;;16.15;75.67;100960.13;8995082;26;20470;-79
2024/04/14 00:24:28;;;;;;;3.78;2.30;;;;;;;16.18;76.22;100956.19;9036386;26;20010;-79
2024/04/14 00:28:30;;;;;;;4.68;2.08;;;;;;;16.21;75.45;100944.94;9005454;26;20339;-80
2024/04/14 00:32:32;;;;;;;3.50;2.20;;;;;;;16.35;74.57;100943.06;9033649;26;20011;-79
2024/04/14 00:36:34;;;;;;;3.67;2.40;;;;;;;16.25;75.21;100938.06;9036390;26;20015;-79
2024/04/14 00:40:36;;;;;;;3.75;2.15;;;;;;;16.45;74.30;100930.75;9034710;26;20014;-79
2024/04/14 00:44:38;;;;;;;4.38;2.40;;;;;;;16.38;74.59;100929.13;9022488;26;20012;-79
2024/04/14 00:48:40;;;;;;;9.02;2.42;;;;;;;16.45;74.04;100924.53;8977023;26;20420;-79
2024/04/14 00:52:42;;;;;;;3.67;1.90;;;;;;;16.25;74.53;100911.88;8987555;26;20354;-79
2024/04/14 00:56:47;;;;;;;4.10;2.20;;;;;;;16.40;74.78;100914.34;9038665;26;20009;-79
2024/04/14 01:00:49;;;;;;;4.63;2.30;;;;;;;16.25;74.84;100914.56;9035991;26;20084;-79
2024/04/14 01:04:51;;;;;;;3.13;2.33;;;;;;;16.39;74.89;100903.75;9038828;26;20014;-79
2024/04/14 01:08:53;;;;;;;4.05;2.10;;;;;;;16.32;75.08;100906.47;9037409;26;20003;-79
2024/04/14 01:12:55;;;;;;;3.05;2.17;;;;;;;16.36;74.90;100907.72;9034934;26;20014;-80
2024/04/14 01:16:57;;;;;;;4.85;2.90;;;;;;;16.37;74.36;100903.97;9001282;26;20007;-79
2024/04/14 01:20:59;;;;;;;4.22;2.15;;;;;;;16.36;74.53;100891.47;9035897;26;20013;-79
2024/04/14 01:25:03;;;;;;;3.72;2.40;;;;;;;16.39;74.79;100890.22;9035671;26;20027;-79
2024/04/14 01:29:06;;;;;;;2.58;1.90;;;;;;;16.43;74.57;100875.22;9037035;26;20003;-80
2024/04/14 01:33:07;;;;;;;4.03;2.25;;;;;;;16.54;74.35;100871.88;9034739;26;20017;-79
2024/04/14 01:37:09;;;;;;;2.75;1.95;;;;;;;16.57;73.48;100872.28;9034636;26;20070;-80
2024/04/14 01:41:11;;;;;;;3.75;2.00;;;;;;;16.51;74.62;100867.72;9034253;26;20034;-80
2024/04/14 01:45:12;;;;;;;6.78;2.33;;;;;;;16.52;74.60;100868.56;9034991;26;19999;-79
2024/04/14 01:49:14;;;;;;;3.17;2.00;;;;;;;16.56;73.96;100867.09;9034382;26;20003;-79
2024/04/14 01:53:19;;;;;;;2.92;2.17;;;;;;;16.57;74.26;100860.63;9043604;26;20075;-78
2024/04/14 01:57:20;;;;;;;8.20;2.53;;;;;;;16.50;74.89;100857.13;9055916;26;19999;-79
2024/04/14 02:01:22;;;;;;;3.17;1.98;;;;;;;16.39;75.30;100863.19;9021523;26;20028;-78
2024/04/14 02:05:24;;;;;;;2.70;1.85;;;;;;;16.37;75.78;100859.88;9005076;26;20004;-80
2024/04/14 02:09:26;;;;;;;5.35;1.88;;;;;;;16.50;74.84;100855.25;9031489;26;20025;-79
2024/04/14 02:13:27;;;;;;;3.45;2.15;;;;;;;16.40;75.94;100864.84;9038496;26;20007;-80
2024/04/14 02:17:29;;;;;;;4.57;2.22;;;;;;;16.23;76.73;100856.34;9036715;26;20009;-80
2024/04/14 02:21:31;;;;;;;4.50;2.33;;;;;;;16.47;75.44;100861.06;9033023;26;20003;-80
2024/04/14 02:25:33;;;;;;;4.80;2.85;;;;;;;16.43;75.91;100845.50;9033804;26;20010;-79
2024/04/14 02:29:34;;;;;;;2.63;1.90;;;;;;;16.24;77.34;100864.25;9033212;26;20143;-79
2024/04/14 02:33:36;;;;;;;2.70;2.20;;;;;;;16.20;78.00;100871.13;9032901;26;20026;-79
2024/04/14 02:37:38;;;;;;;4.60;2.38;;;;;;;16.17;78.02;100885.06;9002404;26;20075;-79
2024/04/14 02:41:39;;;;;;;6.93;2.58;;;;;;;16.30;78.15;100878.78;9039489;26;20013;-79
2024/04/14 02:45:41;;;;;;;3.30;2.38;;;;;;;16.35;77.47;100879.00;9039894;26;19999;-79
2024/04/14 02:49:43;;;;;;;3.40;2.20;;;;;;;16.10;79.56;100880.69;9039744;26;20010;-79
2024/04/14 02:53:45;;;;;;;6.78;2.92;;;;;;;16.22;78.38;100884.44;9038082;26;20018;-80
2024/04/14 02:57:47;;;;;;;3.58;2.53;;;;;;;16.20;79.46;100878.41;9039428;26;20011;-79
2024/04/14 03:01:49;;;;;;;5.65;2.20;;;;;;;16.18;79.00;100865.13;9039980;26;20056;-80
2024/04/14 03:05:58;;;;;;;5.97;2.67;;;;;;;16.01;81.60;100871.16;9040963;26;20051;-80
2024/04/14 03:10:00;;;;;;;4.45;2.40;;;;;;;15.96;81.66;100872.59;9007282;26;20011;-80
2024/04/14 03:14:03;;;;;;;7.35;2.92;;;;;;;16.00;81.56;100875.75;9039876;26;20065;-80
2024/04/14 03:18:05;;;;;;;6.35;2.47;;;;;;;15.95;81.91;100870.09;9040033;26;20017;-80
2024/04/14 03:22:06;;;;;;;4.10;2.50;;;;;;;16.13;81.92;100886.50;9040146;26;20048;-80
2024/04/14 03:26:08;;;;;;;10.93;3.05;;;;;;;15.96;81.94;100880.72;9040648;26;20018;-80
2024/04/14 03:30:10;;;;;;;3.70;2.38;;;;;;;16.02;81.85;100884.47;9040138;26;19999;-79
2024/04/14 03:34:12;;;;;;;2.80;2.20;;;;;;;15.89;83.52;100879.88;9039818;26;20010;-80
2024/04/14 03:38:14;;;;;;;4.15;2.67;;;;;;;15.71;84.23;100884.25;9039746;26;20446;-80
2024/04/14 03:42:15;;;;;;;4.05;2.50;;;;;;;15.66;85.66;100891.13;9039729;26;20311;-79
2024/04/14 03:46:17;;;;;;;4.57;2.40;;;;;;;15.78;84.73;100899.41;9040139;26;20075;-79
2024/04/14 03:50:19;;;;;;;3.70;2.55;;;;;;;15.91;85.05;100898.59;9038507;26;20003;-80
2024/04/14 03:54:21;;;;;;;5.07;3.05;;;;;;;15.61;88.14;100903.56;9039905;26;20327;-80
2024/04/14 03:58:23;;;;;;;6.18;2.92;;;;;;;15.84;86.82;100903.19;9033775;26;20010;-80
2024/04/14 04:02:27;;;;;;;4.35;2.70;;;;;;;15.94;86.31;100912.50;9040856;26;20015;-79
2024/04/14 04:06:29;;;;;;;4.97;2.90;;;;;;;15.97;86.81;100908.59;9039419;26;20018;-79
2024/04/14 04:10:34;;;;;;;5.95;2.80;;;;;;;16.04;86.36;100920.22;9039366;26;20002;-79
2024/04/14 04:14:35;;;;;;;9.77;3.95;;;;;;;16.42;83.35;100911.44;9033045;26;20006;-79
2024/04/14 04:18:37;;;;;;;5.40;3.63;;;;;;;16.32;84.84;100919.16;9007025;26;20003;-79
2024/04/14 04:22:39;;;;;;;7.00;3.08;;;;;;;16.28;85.23;100919.56;9006602;26;20014;-79
2024/04/14 04:26:41;;;;;;;5.43;3.20;;;;;;;16.25;85.45;100924.56;9037584;26;20006;-80
2024/04/14 04:30:42;;;;;;;5.57;3.42;;;;;;;16.36;81.98;100923.09;9038400;26;20026;-79
2024/04/14 04:34:45;;;;;;;6.50;3.30;;;;;;;16.54;81.16;100934.91;9037453;26;20435;-79
2024/04/14 04:38:47;;;;;;;3.65;2.33;;;;;;;16.37;80.74;100946.38;9037080;26;20002;-79
2024/04/14 04:42:49;;;;;;;7.03;3.20;;;;;;;16.52;79.00;100949.69;9038032;26;20006;-80
2024/04/14 04:46:51;;;;;;;5.53;3.33;;;;;;;16.55;78.44;100963.63;9036392;26;20011;-79
2024/04/14 04:50:53;;;;;;;6.72;3.42;;;;;;;16.48;79.28;100970.91;9034701;26;20358;-79
2024/04/14 04:54:55;;;;;;;5.18;2.80;;;;;;;16.35;80.75;100979.06;9036486;26;19998;-79
2024/04/14 04:58:56;;;;;;;7.10;3.20;;;;;;;16.27;79.71;100973.84;9024448;26;19999;-79
2024/04/14 05:02:58;;;;;;;5.55;2.90;;;;;;;16.18;78.94;100994.84;8952827;26;20406;-79
2024/04/14 05:07:00;;;;;;;6.72;3.33;;;;;;;16.16;78.73;101002.34;9037317;26;20422;-79
2024/04/14 05:11:02;;;;;;;13.32;3.70;;;;;;;16.12;78.14;101003.78;9046664;26;20018;-79
2024/04/14 05:15:06;;;;;;;4.40;2.85;;;;;;;16.23;76.94;101023.97;9050591;26;20014;-78
2024/04/14 05:19:08;;;;;;;5.63;3.22;;;;;;;16.18;75.30;101013.78;9058718;26;20003;-79
2024/04/14 05:23:10;;;;;;;3.47;2.20;;;;;;;16.13;75.08;101023.53;9057482;26;20027;-79
2024/04/14 05:27:13;;;;;;;10.90;3.33;;;;;;;16.32;74.35;101030.00;9041066;26;20007;-79
2024/04/14 05:31:14;;;;;;;10.98;2.83;;;;;;;16.07;74.14;101036.00;9037838;26;19998;-78
2024/04/14 05:35:16;;;;;;;6.57;2.08;;;;;;;15.88;72.99;101040.34;9037714;26;20007;-79
2024/04/14 05:39:17;;;;;;;5.57;2.70;;;;;;;15.83;74.06;101028.50;9036819;26;19998;-79
2024/04/14 05:43:19;;;;;;;7.18;2.33;;;;;;;15.84;73.04;101044.50;9036336;26;20007;-79
2024/04/14 05:47:21;;;;;;;5.75;3.10;;;;;;;16.00;72.04;101053.25;9034926;26;20052;-80
2024/04/14 05:51:23;;;;;;;4.47;2.33;;;;;;;15.75;72.83;101048.41;8984327;26;20004;-80
2024/04/14 05:55:24;;;;;;;6.95;2.17;;;;;;;15.72;72.81;101050.69;9020789;26;20015;-80
2024/04/14 05:59:26;;;;;;;6.35;2.17;;;;;;;15.67;72.77;101062.09;9038472;26;20015;-80
2024/04/14 06:03:28;;;;;;;3.75;1.92;;;;;;;15.65;71.80;101064.19;9038611;26;20007;-80
2024/04/14 06:07:30;;;;;;;9.48;2.33;;;;;;;15.75;72.43;101070.00;9039053;26;20007;-80
2024/04/14 06:11:36;;;;;;;6.35;2.08;;;;;;;15.87;72.04;101078.38;9034713;26;20009;-80
2024/04/14 06:15:38;;;;;;;5.35;2.42;;;;;;;15.87;71.78;101079.19;9044707;26;20017;-80
2024/04/14 06:19:39;;;;;;;7.95;2.45;;;;;;;15.78;72.26;101088.50;9044467;26;20011;-79
2024/04/14 06:23:41;;;;;;;5.70;2.33;;;;;;;15.63;72.13;101079.75;9012457;26;20003;-82
2024/04/14 06:27:43;;;;;;;5.82;2.10;;;;;;;15.74;72.87;101091.81;9042525;26;20044;-80
2024/04/14 06:31:45;;;;;;;4.65;2.55;;;;;;;15.87;71.68;101094.59;9042816;26;20011;-81
2024/04/14 06:35:46;;;;;;;5.28;2.15;;;;;;;15.42;72.55;101110.34;9042799;26;20014;-79
2024/04/14 06:39:48;;;;;;;4.00;2.38;;;;;;;15.71;72.26;101108.44;9040952;26;20462;-79
2024/04/14 06:43:50;;;;;;;4.97;2.10;;;;;;;15.94;72.46;101117.03;9009393;26;20014;-79
2024/04/14 06:47:51;;;;;;;6.03;2.30;;;;;;;16.04;70.78;101111.25;9040002;26;20076;-79
2024/04/14 06:51:53;;;;;;;5.68;2.35;;;;;;;15.86;72.69;101123.47;9008299;26;20014;-79
2024/04/14 06:55:58;;;;;;;7.82;2.92;;;;;;;15.91;71.02;101120.16;9040008;26;20018;-79
2024/04/14 07:00:00;;;;;;;9.30;2.20;;;;;;;16.13;70.46;101124.38;9007709;26;20003;-79
2024/04/14 07:04:02;;;;;;;6.65;1.67;;;;;;;15.96;67.78;101141.97;9039265;26;20060;-79
2024/04/14 07:08:04;;;;;;;4.18;1.98;;;;;;;15.84;70.15;101132.81;9008104;26;20377;-79
2024/04/14 07:12:06;;;;;;;8.10;1.67;;;;;;;15.43;70.94;101133.63;9039029;26;20006;-78
2024/04/14 07:16:08;;;;;;;3.13;1.50;;;;;;;15.26;73.00;101148.47;9040384;26;20388;-79
2024/04/14 07:20:10;;;;;;;4.53;1.90;;;;;;;15.60;73.28;101147.66;9039514;26;20003;-78
2024/04/14 07:24:12;;;;;;;4.28;1.70;;;;;;;15.45;69.78;101176.66;9039711;26;19999;-79
2024/04/14 07:28:13;;;;;;;8.85;2.05;;;;;;;15.70;68.35;101160.81;9038187;26;20015;-78
2024/04/14 07:32:15;;;;;;;9.57;2.40;;;;;;;15.96;68.58;101171.72;9038016;26;20009;-78
2024/04/14 07:36:17;;;;;;;5.32;1.77;;;;;;;16.10;67.80;101170.72;9037783;26;20018;-79
2024/04/14 07:40:19;;;;;;;3.83;1.40;;;;;;;15.55;66.42;101172.53;9006589;26;20027;-77
2024/04/14 07:44:20;;;;;;;5.07;1.83;;;;;;;15.63;64.26;101176.97;9038333;26;20002;-78
2024/04/14 07:48:22;;;;;;;4.32;1.55;;;;;;;15.98;62.03;101175.06;9037938;26;20026;-78
2024/04/14 07:52:24;;;;;;;4.07;1.50;;;;;;;16.12;61.97;101181.34;9013027;26;19999;-78
2024/04/14 07:56:25;;;;;;;4.65;1.33;;;;;;;16.00;59.61;101188.38;9005517;26;20003;-78
2024/04/14 08:00:27;;;;;;;16.23;1.92;;;;;;;16.11;57.24;101194.00;8977413;26;19999;-78
2024/04/14 08:04:29;;;;;;;1.48;0.95;;;;;;;15.55;54.60;101186.03;9003339;26;20014;-80
2024/04/14 08:08:31;;;;;;;4.72;0.80;;;;;;;15.88;55.33;101186.25;9035094;26;20034;-78
2024/04/14 08:12:32;;;;;;;2.20;0.82;;;;;;;15.80;54.99;101194.53;9041065;26;20006;-78
2024/04/14 08:16:35;;;;;;;4.45;1.40;;;;;;;16.08;55.49;101205.25;9050838;26;20056;-79
2024/04/14 08:20:37;;;;;;;5.95;1.20;;;;;;;16.02;52.94;101206.06;9039859;26;20467;-79
2024/04/14 08:24:39;;;;;;;4.75;1.25;;;;;;;15.81;53.73;101208.88;9040908;26;20013;-80
2024/04/14 08:28:40;;;;;;;2.47;0.90;;;;;;;15.90;52.69;101211.19;9040739;26;20035;-80
2024/04/14 08:32:42;;;;;;;7.65;1.15;;;;;;;15.54;53.14;101211.38;9040073;26;20010;-81
2024/04/14 08:36:44;;;;;;;3.13;1.00;;;;;;;15.86;53.67;101231.53;9041442;26;20038;-81
2024/04/14 08:40:55;;;;;;;5.72;1.40;;;;;;;16.15;53.33;101208.81;9044275;26;20013;-80
2024/04/14 08:44:59;;;;;;;4.10;0.90;;;;;;;15.78;52.13;101226.28;9041879;26;20002;-81
2024/04/14 08:49:02;;;;;;;4.35;1.08;;;;;;;16.00;51.03;101245.97;8976632;26;20007;-80
2024/04/14 08:53:06;;;;;;;2.80;1.30;;;;;;;15.97;50.28;101233.69;9004701;26;20052;-82
2024/04/14 08:57:08;;;;;;;2.08;0.70;;;;;;;15.82;50.03;101241.09;9036066;26;20036;-81
2024/04/14 09:01:10;;;;;;;2.97;0.93;;;;;;;16.27;49.97;101239.63;9038983;26;20006;-80
2024/04/14 09:05:13;;;;;;;2.30;1.08;;;;;;;16.39;49.37;101237.16;9007599;26;20017;-81
2024/04/14 09:09:15;;;;;;;1.85;0.93;;;;;;;15.78;50.24;101239.78;9009690;26;20052;-85
2024/04/14 09:13:17;;;;;;;3.38;1.20;;;;;;;16.18;50.39;101238.16;9017244;26;20034;-80
2024/04/14 09:17:20;;;;;;;4.65;1.23;;;;;;;16.90;49.72;101227.75;9015063;26;20015;-79
2024/04/14 09:21:24;;;;;;;1.75;1.00;;;;;;;17.20;48.71;101239.84;9041102;26;20007;-80
2024/04/14 09:25:30;;;;;;;3.58;1.23;;;;;;;17.32;49.19;101227.31;9038580;26;20461;-81
2024/04/14 09:29:32;;;;;;;2.00;0.90;;;;;;;16.86;51.84;101240.84;9037708;26;20502;-82
2024/04/14 09:33:34;;;;;;;3.17;1.00;;;;;;;16.66;50.22;101243.50;9039122;26;20006;-82
2024/04/14 09:37:39;;;;;;;2.97;1.05;;;;;;;16.80;50.76;101256.03;9038409;26;20003;-80
2024/04/14 09:41:41;;;;;;;3.67;1.02;;;;;;;16.64;49.92;101269.06;9038060;26;20345;-79
2024/04/14 09:45:43;;;;;;;4.55;1.00;;;;;;;16.82;50.89;101264.75;9036533;26;20021;-80
2024/04/14 09:49:46;;;;;;;7.60;1.10;;;;;;;16.87;50.22;101270.41;9036945;26;20462;-79
2024/04/14 09:53:50;;;;;;;6.32;1.52;;;;;;;16.70;49.40;101261.00;8966533;26;20498;-79
2024/04/14 09:57:52;;;;;;;2.03;0.80;;;;;;;16.85;46.89;101274.38;9037586;26;20014;-80
2024/04/14 10:01:55;;;;;;;3.28;1.02;;;;;;;16.49;44.84;101267.38;9037096;26;20003;-80
2024/04/14 10:05:59;;;;;;;5.82;1.25;;;;;;;16.35;44.59;101270.25;9037524;26;20003;-80
2024/04/14 10:10:01;;;;;;;1.65;0.75;;;;;;;16.21;45.22;101272.88;9033835;26;20003;-79
2024/04/14 10:14:03;;;;;;;2.35;0.80;;;;;;;16.22;45.00;101276.41;8998440;26;20342;-80
2024/04/14 10:18:08;;;;;;;3.10;1.02;;;;;;;16.42;44.97;101285.44;9041690;26;20031;-79
2024/04/14 10:22:10;;;;;;;4.13;1.77;;;;;;;16.14;46.67;101293.66;9008086;26;20009;-81
2024/04/14 10:26:16;;;;;;;4.60;1.30;;;;;;;15.77;45.94;101285.91;9006732;26;20003;-79
2024/04/14 10:30:21;;;;;;;3.78;1.05;;;;;;;16.09;44.84;101288.00;9039679;26;20002;-79
2024/04/14 10:34:23;;;;;;;5.45;1.00;;;;;;;16.42;46.03;101293.56;9039673;26;20003;-79
2024/04/14 10:38:25;;;;;;;3.97;1.02;;;;;;;16.07;44.31;101300.03;9036620;26;20013;-79
2024/04/14 10:42:27;;;;;;;5.03;1.55;;;;;;;16.06;44.40;101315.44;9035182;26;20023;-80
2024/04/14 10:46:31;;;;;;;4.07;1.10;;;;;;;16.07;45.47;101318.97;8995841;26;19999;-80
2024/04/14 10:50:33;;;;;;;3.58;1.08;;;;;;;15.89;43.48;101303.25;8891238;26;20015;-79
2024/04/14 10:54:35;;;;;;;1.55;0.90;;;;;;;15.62;44.68;101304.97;8943793;26;20459;-79
2024/04/14 10:58:38;;;;;;;3.08;1.08;;;;;;;15.49;41.82;101311.06;8977078;26;20359;-80
2024/04/14 11:02:40;;;;;;;4.40;1.88;;;;;;;16.08;41.90;101304.41;9037011;26;20017;-79
2024/04/14 11:06:45;;;;;;;3.05;1.10;;;;;;;16.16;42.85;101309.66;9038348;26;20038;-80
2024/04/14 11:10:47;;;;;;;7.55;1.30;;;;;;;16.42;42.91;101309.78;9040842;26;20002;-80
2024/04/14 11:14:49;;;;;;;9.25;1.38;;;;;;;16.26;44.79;101302.84;9009015;26;20056;-80
2024/04/14 11:18:51;;;;;;;23.27;14.73;;;;;;;16.59;44.71;101304.84;9010595;26;20007;-79
2024/04/14 11:22:53;;;;;;;3.67;1.60;;;;;;;17.28;44.79;101301.06;9040154;26;19999;-79
2024/04/14 11:26:54;;;;;;;2.63;0.98;;;;;;;16.75;39.67;101314.50;9039887;26;20010;-78
2024/04/14 11:30:56;;;;;;;3.25;0.95;;;;;;;16.65;39.46;101317.56;9038133;26;20080;-80
2024/04/14 11:35:00;;;;;;;5.88;1.17;;;;;;;16.57;41.47;101325.88;9037501;26;20119;-80
2024/04/14 11:39:03;;;;;;;2.05;0.80;;;;;;;16.64;40.65;101326.72;9036925;26;20454;-78
2024/04/14 11:43:05;;;;;;;6.43;1.00;;;;;;;16.14;41.01;101325.22;9036928;26;20469;-79
2024/04/14 11:47:06;;;;;;;3.67;1.10;;;;;;;16.29;42.98;101329.47;9031522;26;20031;-78
2024/04/14 11:51:08;;;;;;;4.82;1.05;;;;;;;16.28;41.38;101325.09;9020386;26;20010;-76
2024/04/14 11:55:10;;;;;;;6.68;1.10;;;;;;;16.42;41.43;101320.59;9000150;26;20133;-78
2024/04/14 11:59:11;;;;;;;3.22;0.98;;;;;;;16.35;40.92;101318.91;9032626;26;20075;-78
2024/04/14 12:03:13;;;;;;;3.80;1.00;;;;;;;17.21;40.80;101319.19;9038009;26;20053;-77
2024/04/14 12:07:15;;;;;;;4.10;1.13;;;;;;;17.03;39.78;101309.78;8976978;26;20348;-78
2024/04/14 12:11:16;;;;;;;5.25;1.15;;;;;;;17.50;38.88;101294.38;8974663;26;20391;-79
2024/04/14 12:15:18;;;;;;;5.53;1.25;;;;;;;17.23;35.81;101280.03;8990995;26;20397;-78
2024/04/14 12:19:20;;;;;;;3.83;1.20;;;;;;;16.73;35.65;101298.47;9038004;26;20003;-77
2024/04/14 12:23:22;;;;;;;2.63;1.00;;;;;;;17.53;37.00;101293.13;9056507;26;19999;-78
2024/04/14 12:27:23;;;;;;;6.20;0.82;;;;;;;16.33;35.29;101300.19;9019764;26;20015;-78
2024/04/14 12:31:25;;;;;;;1.75;0.60;;;;;;;15.67;35.39;101280.88;9041129;26;20330;-78
2024/04/14 12:35:27;;;;;;;2.70;0.80;;;;;;;16.22;35.89;101295.34;9037316;26;20027;-78
2024/04/14 12:39:28;;;;;;;4.50;1.35;;;;;;;17.13;36.48;101266.88;9036028;26;20057;-78
2024/04/14 12:43:32;;;;;;;4.55;1.25;;;;;;;17.22;35.04;101272.13;9037381;26;20339;-79
2024/04/14 12:47:34;;;;;;;3.97;1.15;;;;;;;16.72;35.40;101287.88;9037599;26;19995;-79
2024/04/14 12:51:36;;;;;;;3.38;0.80;;;;;;;17.02;32.67;101270.22;9036863;26;20015;-80
2024/04/14 12:55:41;;;;;;;2.75;0.60;;;;;;;17.47;31.92;101281.28;9004884;26;20003;-79
2024/04/14 12:59:43;;;;;;;16.38;1.65;;;;;;;16.89;30.81;101278.31;9033595;26;20067;-78
2024/04/14 13:03:45;;;;;;;4.40;0.95;;;;;;;16.66;31.96;101281.38;9034572;26;20335;-80
2024/04/14 13:07:47;;;;;;;2.05;0.68;;;;;;;17.58;30.55;101272.50;9032250;26;20411;-79
2024/04/14 13:11:48;;;;;;;5.22;1.00;;;;;;;18.75;31.73;101276.97;9030939;26;20021;-80
2024/04/14 13:15:50;;;;;;;1.52;0.70;;;;;;;17.47;31.02;101271.25;9034686;26;20003;-79
2024/04/14 13:19:52;;;;;;;3.95;0.90;;;;;;;18.06;30.55;101275.78;9063200;20;20054;-80
2024/04/14 13:23:54;;;;;;;1.40;0.63;;;;;;;16.76;29.43;101289.94;8985486;26;20465;-80
2024/04/14 13:27:56;;;;;;;5.72;1.20;;;;;;;16.95;30.61;101277.50;9033388;26;20359;-79
2024/04/14 13:31:57;;;;;;;2.35;0.85;;;;;;;16.84;31.07;101272.72;9036358;26;20064;-79
2024/04/14 13:36:03;;;;;;;6.40;0.90;;;;;;;16.84;32.74;101265.41;8990217;26;20003;-80
2024/04/14 13:40:05;;;;;;;3.90;0.80;;;;;;;17.08;31.69;101255.88;8956202;26;20288;-78
2024/04/14 13:44:07;;;;;;;2.28;1.05;;;;;;;17.06;31.25;101246.28;8984215;26;20469;-79
2024/04/14 13:48:08;;;;;;;1.98;0.90;;;;;;;16.65;31.95;101255.34;9029929;26;20039;-78
2024/04/14 13:52:11;;;;;;;1.98;0.63;;;;;;;17.35;30.79;101245.00;9012051;26;20003;-79
2024/04/14 13:56:13;;;;;;;5.50;1.00;;;;;;;17.64;28.90;101244.56;9016485;26;20018;-80
2024/04/14 14:00:15;;;;;;;4.13;0.80;;;;;;;18.81;28.14;101234.53;8981516;26;19999;-79
2024/04/14 14:04:18;;;;;;;2.97;0.77;;;;;;;17.71;28.85;101244.59;8984709;26;20003;-79
2024/04/14 14:08:19;;;;;;;2.03;0.98;;;;;;;18.07;30.05;101233.25;8967882;26;20016;-80
2024/04/14 14:12:21;;;;;;;3.72;0.70;;;;;;;17.44;29.83;101227.53;9007506;26;20029;-79
2024/04/14 14:16:23;;;;;;;3.03;0.60;;;;;;;17.64;28.79;101231.03;8993671;26;20491;-79
2024/04/14 14:20:24;;;;;;;4.88;0.98;;;;;;;17.78;30.64;101204.75;8975157;26;20048;-78
2024/04/14 14:24:26;;;;;;;2.75;0.80;;;;;;;17.22;30.91;101221.50;8984429;26;20010;-80
2024/04/14 14:28:28;;;;;;;1.77;0.73;;;;;;;16.94;30.95;101210.88;8972481;26;20007;-79
2024/04/14 14:32:31;;;;;;;2.28;1.35;;;;;;;17.53;30.88;101214.56;8974009;26;19999;-79
2024/04/14 14:36:37;;;;;;;1.73;1.00;;;;;;;18.20;30.68;101206.03;9024121;26;20343;-79
2024/04/14 14:40:40;;;;;;;2.97;0.70;;;;;;;18.54;29.69;101207.53;9039699;26;20030;-79
2024/04/14 14:44:41;;;;;;;2.15;1.13;;;;;;;18.06;31.04;101194.44;9023785;26;20402;-79
2024/04/14 14:48:43;;;;;;;5.68;0.90;;;;;;;18.18;30.85;101218.16;8979758;26;20348;-80
2024/04/14 14:52:45;;;;;;;4.38;0.90;;;;;;;17.95;28.60;101211.38;8979307;26;20018;-78
2024/04/14 14:56:47;;;;;;;4.82;0.98;;;;;;;17.67;29.04;101210.78;9025223;26;20038;-79
2024/04/14 15:00:58;;;;;;;2.03;0.93;;;;;;;18.98;28.15;101203.91;9037053;26;20007;-80
2024/04/14 15:04:59;;;;;;;1.55;0.60;;;;;;;18.07;29.19;101214.25;9028281;26;20415;-79
2024/04/14 15:09:02;;;;;;;3.00;0.93;;;;;;;18.48;25.62;101199.44;9031021;26;20454;-81
2024/04/14 15:13:04;;;;;;;4.82;1.20;;;;;;;18.42;25.37;101189.47;9036566;26;19999;-80
2024/04/14 15:17:05;;;;;;;2.90;1.00;;;;;;;18.23;26.62;101196.66;8982941;26;20022;-79
2024/04/14 15:21:08;;;;;;;6.53;1.10;;;;;;;17.88;29.09;101202.44;8973617;26;20012;-79
2024/04/14 15:25:09;;;;;;;1.52;0.60;;;;;;;17.26;26.76;101203.78;8997995;26;20003;-79
2024/04/14 15:29:11;;;;;;;1.65;0.75;;;;;;;17.01;27.20;101225.25;9038573;26;20050;-79
2024/04/14 15:33:13;;;;;;;2.63;1.00;;;;;;;17.04;26.90;101207.75;9009246;26;20035;-79
2024/04/14 15:37:14;;;;;;;9.48;1.40;;;;;;;17.37;27.83;101203.16;8976715;26;20342;-78
2024/04/14 15:41:17;;;;;;;1.73;0.63;;;;;;;17.58;27.47;101193.13;8974442;26;20003;-78
2024/04/14 15:45:22;;;;;;;3.90;0.60;;;;;;;17.51;27.89;101201.25;8999404;26;20017;-80
2024/04/14 15:49:23;;;;;;;4.47;0.90;;;;;;;17.54;26.92;101190.00;9014576;26;20014;-79
2024/04/14 15:53:25;;;;;;;3.90;0.82;;;;;;;17.11;27.24;101182.34;8979324;26;20018;-79
2024/04/14 15:57:27;;;;;;;2.33;0.88;;;;;;;17.34;28.46;101191.91;9036313;26;20060;-79
2024/04/14 16:01:36;;;;;;;2.05;0.80;;;;;;;17.52;28.69;101196.66;9037725;26;20376;-80
2024/04/14 16:05:41;;;;;;;1.50;0.60;;;;;;;17.23;29.05;101187.13;9009834;26;20458;-79
2024/04/14 16:09:43;;;;;;;2.63;1.30;;;;;;;17.84;28.02;101178.69;9038576;26;20075;-79
2024/04/14 16:13:45;;;;;;;2.05;0.88;;;;;;;17.74;29.08;101171.00;9000082;26;20015;-83
2024/04/14 16:17:47;;;;;;;2.03;0.80;;;;;;;17.68;29.38;101180.81;9043836;26;20469;-86
2024/04/14 16:21:49;;;;;;;4.00;1.00;;;;;;;17.74;28.79;101165.59;9049445;26;20003;-86
2024/04/14 16:25:54;;;;;;;3.88;1.10;;;;;;;17.62;29.21;101161.84;8991451;26;20484;-85
2024/04/14 16:29:57;;;;;;;3.05;0.80;;;;;;;17.90;28.94;101164.28;8982592;26;20004;-86
2024/04/14 16:34:02;;;;;;;4.25;0.80;;;;;;;19.33;27.83;101159.94;8984476;26;20371;-83
2024/04/14 16:38:03;;;;;;;5.75;0.98;;;;;;;18.61;28.73;101166.81;8977481;26;20012;-84
2024/04/14 16:42:05;;;;;;;1.55;0.65;;;;;;;18.16;29.22;101163.31;8978360;26;19999;-81
2024/04/14 16:46:07;;;;;;;5.97;1.20;;;;;;;18.15;28.74;101167.06;8983074;26;20028;-85
2024/04/14 16:50:13;;;;;;;2.47;0.90;;;;;;;18.14;29.11;101185.22;8993464;26;20000;-84
2024/04/14 16:54:18;;;;;;;2.83;1.02;;;;;;;18.12;29.66;101173.75;8991546;26;20342;-87
2024/04/14 16:58:20;;;;;;;5.88;1.33;;;;;;;17.93;29.68;101180.94;8979066;26;20007;-85
2024/04/14 17:02:22;;;;;;;2.58;0.82;;;;;;;17.41;30.65;101174.59;8981044;26;20406;-83
2024/04/14 17:06:24;;;;;;;2.03;0.90;;;;;;;17.91;30.66;101171.38;8979375;26;20007;-85
2024/04/14 17:10:26;;;;;;;5.25;1.08;;;;;;;17.47;30.87;101179.16;9021469;26;20019;-87
2024/04/14 17:14:29;;;;;;;3.50;1.10;;;;;;;17.12;32.01;101172.34;9006262;26;20002;-85
2024/04/14 17:18:31;;;;;;;6.18;1.33;;;;;;;16.76;32.78;101170.91;9025421;26;20019;-77
2024/04/14 17:22:33;;;;;;;7.18;1.20;;;;;;;16.17;33.53;101179.72;8935954;26;20026;-79
2024/04/14 17:26:34;;;;;;;3.72;1.15;;;;;;;15.16;35.49;101177.69;8992668;26;20013;-77
2024/04/14 17:30:36;;;;;;;5.95;1.80;;;;;;;15.46;35.61;101175.59;9026569;26;20469;-78
2024/04/14 17:34:38;;;;;;;4.47;1.10;;;;;;;15.03;36.07;101183.81;9024537;26;20012;-79
2024/04/14 17:38:39;;;;;;;4.22;1.48;;;;;;;15.10;35.78;101176.63;8976311;26;20007;-80
2024/04/14 17:42:41;;;;;;;6.93;1.45;;;;;;;15.12;36.06;101169.16;8979249;26;20005;-79
2024/04/14 17:46:42;;;;;;;2.70;1.17;;;;;;;14.66;36.37;101176.84;9018112;26;20015;-80
2024/04/14 17:50:44;;;;;;;5.25;1.80;;;;;;;15.13;36.43;101187.00;9038449;26;20027;-79
2024/04/14 17:54:46;;;;;;;2.35;1.30;;;;;;;15.02;36.98;101169.47;9025661;26;20077;-79
2024/04/14 17:58:48;;;;;;;2.58;1.08;;;;;;;14.68;37.41;101182.88;8977709;26;20014;-80
2024/04/14 18:02:49;;;;;;;5.38;1.25;;;;;;;14.74;37.05;101179.41;8976225;26;20081;-79
2024/04/14 18:06:51;;;;;;;3.22;1.42;;;;;;;14.56;37.90;101181.72;9020963;26;20014;-79
2024/04/14 18:10:53;;;;;;;6.38;1.90;;;;;;;14.24;39.31;101193.81;9039436;26;20019;-79
2024/04/14 18:14:54;;;;;;;5.82;1.58;;;;;;;14.51;40.07;101187.69;9038873;26;20006;-79
2024/04/14 18:18:56;;;;;;;6.78;1.55;;;;;;;14.55;38.73;101188.97;9045705;26;20492;-79
2024/04/14 18:22:59;;;;;;;8.93;2.60;;;;;;;14.37;40.99;101196.63;9042381;26;19998;-80
2024/04/14 18:27:06;;;;;;;8.98;3.42;;;;;;;14.54;40.85;101192.69;8994341;26;20080;-79
2024/04/14 18:31:07;;;;;;;3.95;1.60;;;;;;;14.29;40.78;101196.75;8979370;26;20451;-79
2024/04/14 18:35:09;;;;;;;8.75;2.05;;;;;;;14.06;42.29;101195.06;8984093;26;20015;-79
2024/04/14 18:39:11;;;;;;;4.90;1.95;;;;;;;13.85;41.79;101200.34;8982467;26;20043;-79
2024/04/14 18:43:13;;;;;;;5.78;2.13;;;;;;;13.80;42.00;101200.94;8982858;26;20022;-79